Time;durP1;ratioP1;P1;durP2;ratioP2;P2;SDS_P1;SDS_P2;PMS_P1;PMS_P2;Temp;Humidity;BMP_temperature;BMP_pressure;BME280_temperature;BME280_humidity;BME280_pressure;Samples;Min_cycle;Max_cycle;Signal;HPM_P1;HPM_P2
2020/12/11 00:00:04;;;;;;;31.73;22.23;;;;;;;;;;4595870;28;20486;-81
2020/12/11 00:02:42;;;;;;;31.23;22.63;;;;;;;;;;4594550;28;20926;-82
2020/12/11 00:04:58;;;;;;;25.83;19.87;;;;;;;;;;4594993;28;20529;-83
2020/12/11 00:07:15;;;;;;;27.60;20.37;;;;;;;;;;4595605;28;20463;-82
2020/12/11 00:09:30;;;;;;;25.97;19.53;;;;;;;;;;4594109;28;20440;-85
2020/12/11 00:11:47;;;;;;;28.00;20.10;;;8.90;83.90;;;;;;4594073;28;20459;-74
2020/12/11 00:14:03;;;;;;;32.97;23.00;;;;;;;;;;4593682;28;20996;-79
2020/12/11 00:16:20;;;;;;;33.10;24.23;;;;;;;;;;4594627;28;20462;-81
2020/12/11 00:18:37;;;;;;;34.67;24.33;;;;;;;;;;4593522;28;20444;-81
2020/12/11 00:20:53;;;;;;;34.97;24.57;;;;;;;;;;4594548;28;20487;-86
2020/12/11 00:23:09;;;;;;;34.10;24.03;;;;;;;;;;4594737;28;20462;-83
2020/12/11 00:25:26;;;;;;;33.53;24.07;;;;;;;;;;4595680;28;20483;-83
2020/12/11 00:27:43;;;;;;;33.10;24.67;;;;;;;;;;4593139;28;20428;-83
2020/12/11 00:29:59;;;;;;;34.73;25.20;;;;;;;;;;4594851;28;20457;-85
2020/12/11 00:32:16;;;;;;;34.53;25.20;;;7.20;84.10;;;;;;4594647;28;20451;-82
2020/12/11 00:34:32;;;;;;;40.70;25.87;;;;;;;;;;4594266;28;20440;-83
2020/12/11 00:36:49;;;;;;;36.73;24.27;;;;;;;;;;4593356;28;20796;-82
2020/12/11 00:39:05;;;;;;;38.30;25.20;;;;;;;;;;4594222;28;20528;-83
2020/12/11 00:41:22;;;;;;;37.17;25.03;;;;;;;;;;4594330;28;20440;-83
2020/12/11 00:43:38;;;;;;;37.93;24.50;;;;;;;;;;4593901;28;20436;-82
2020/12/11 00:45:55;;;;;;;37.53;26.23;;;;;;;;;;4594672;28;20533;-82
2020/12/11 00:48:12;;;;;;;35.30;24.23;;;;;;;;;;4593662;28;20428;-82
2020/12/11 00:50:28;;;;;;;38.77;24.53;;;;;;;;;;4595295;28;20455;-82
2020/12/11 00:52:45;;;;;;;42.77;24.23;;;;;;;;;;4593102;28;20468;-81
2020/12/11 00:55:01;;;;;;;34.97;24.33;;;;;;;;;;4595007;28;20436;-82
2020/12/11 00:57:18;;;;;;;37.73;24.20;;;;;;;;;;4576988;28;20493;-82
2020/12/11 00:59:34;;;;;;;37.73;25.37;;;;;;;;;;4593766;28;20444;-82
2020/12/11 01:01:51;;;;;;;34.97;23.67;;;;;;;;;;4592870;28;20432;-82
2020/12/11 01:04:08;;;;;;;37.93;25.70;;;;;;;;;;4594079;28;20519;-82
2020/12/11 01:06:24;;;;;;;36.47;25.20;;;;;;;;;;4592724;28;20472;-84
2020/12/11 01:08:40;;;;;;;39.17;25.30;;;;;;;;;;4593642;28;20440;-83
2020/12/11 01:10:57;;;;;;;34.53;23.27;;;;;;;;;;4593505;28;20440;-82
2020/12/11 01:13:14;;;;;;;36.20;24.03;;;;;;;;;;4577779;28;20881;-82
2020/12/11 01:15:30;;;;;;;33.73;23.53;;;;;;;;;;4592299;28;20476;-82
2020/12/11 01:17:46;;;;;;;37.47;24.37;;;;;;;;;;4593748;28;20967;-82
2020/12/11 01:20:14;;;;;;;33.87;24.00;;;;;;;;;;4593244;28;20448;-82
2020/12/11 01:22:33;;;;;;;34.13;23.40;;;;;;;;;;4594450;28;20421;-83
2020/12/11 01:24:50;;;;;;;34.03;24.07;;;;;;;;;;4592211;28;20845;-83
2020/12/11 01:27:06;;;;;;;37.40;25.30;;;;;;;;;;4593033;28;20482;-83
2020/12/11 01:29:22;;;;;;;37.13;24.10;;;;;;;;;;4592647;28;20473;-82
2020/12/11 01:31:38;;;;;;;33.20;22.53;;;;;;;;;;4594579;28;20769;-83
2020/12/11 01:33:55;;;;;;;34.40;22.80;;;;;;;;;;4592675;28;20432;-82
2020/12/11 01:36:12;;;;;;;32.50;23.30;;;;;;;;;;4593788;28;20927;-82
2020/12/11 01:38:28;;;;;;;34.83;22.87;;;;;;;;;;4593101;28;20447;-82
2020/12/11 01:40:46;;;;;;;31.53;22.23;;;;;;;;;;4592243;28;20471;-82
2020/12/11 01:43:02;;;;;;;35.03;22.23;;;;;;;;;;4593215;28;20835;-82
2020/12/11 01:45:18;;;;;;;34.97;22.97;;;;;;;;;;4593031;28;20444;-82
2020/12/11 01:47:39;;;;;;;29.33;23.03;;;;;;;;;;4594139;28;20455;-81
2020/12/11 01:49:57;;;;;;;31.37;22.23;;;;;;;;;;4592181;28;20437;-83
2020/12/11 01:52:15;;;;;;;29.50;21.60;;;;;;;;;;4593358;28;20467;-82
2020/12/11 01:54:32;;;;;;;30.90;23.20;;;;;;;;;;4591848;28;20452;-83
2020/12/11 01:56:52;;;;;;;30.13;22.63;;;5.70;79.10;;;;;;4593171;28;20454;-82
2020/12/11 01:59:13;;;;;;;33.97;23.37;;;8.10;80.30;;;;;;4591856;28;20460;-81
2020/12/11 02:01:31;;;;;;;32.87;22.97;;;8.60;80.60;;;;;;4594179;28;20416;-82
2020/12/11 02:03:47;;;;;;;31.20;23.13;;;;;;;;;;4592904;28;20440;-83
2020/12/11 02:06:03;;;;;;;34.90;23.47;;;;;;;;;;4593129;28;20951;-83
2020/12/11 02:08:21;;;;;;;35.57;24.87;;;;;;;;;;4592605;28;20452;-82
2020/12/11 02:10:37;;;;;;;37.27;23.93;;;;;;;;;;4594646;28;20437;-82
2020/12/11 02:12:53;;;;;;;32.67;23.50;;;;;;;;;;4592990;28;20436;-84
2020/12/11 02:15:10;;;;;;;33.57;23.73;;;;;;;;;;4592808;28;20466;-81
2020/12/11 02:17:27;;;;;;;31.43;22.67;;;;;;;;;;4594018;28;20432;-83
2020/12/11 02:19:43;;;;;;;30.63;23.20;;;;;;;;;;4591694;28;20461;-82
2020/12/11 02:22:01;;;;;;;33.57;22.60;;;;;;;;;;4594316;28;20440;-82
2020/12/11 02:24:17;;;;;;;34.50;24.20;;;;;;;;;;4592131;28;20459;-82
2020/12/11 02:26:33;;;;;;;28.93;21.77;;;;;;;;;;4594766;28;21029;-83
2020/12/11 02:28:50;;;;;;;35.90;23.50;;;;;;;;;;4591704;28;20444;-84
2020/12/11 02:31:06;;;;;;;29.53;22.23;;;;;;;;;;4583243;28;20540;-82
2020/12/11 02:33:23;;;;;;;29.10;22.17;;;;;;;;;;4608491;28;20504;-81
2020/12/11 02:35:41;;;;;;;30.60;22.40;;;8.80;85.60;;;;;;4596367;28;20981;-84
2020/12/11 02:37:58;;;;;;;30.37;22.43;;;9.10;85.50;;;;;;4595727;28;20504;-82
2020/12/11 02:40:14;;;;;;;30.20;23.50;;;;;;;;;;4603560;28;20981;-83
2020/12/11 02:42:31;;;;;;;34.60;23.47;;;;;;;;;;4592896;28;20470;-82
2020/12/11 02:44:47;;;;;;;35.17;24.73;;;;;;;;;;4592733;28;20919;-82
2020/12/11 02:47:03;;;;;;;31.83;24.33;;;;;;;;;;4592536;28;20820;-82
2020/12/11 02:49:20;;;;;;;32.57;24.63;;;;;;;;;;4593742;28;20497;-83
2020/12/11 02:51:36;;;;;;;36.80;25.97;;;;;;;;;;4591438;28;20519;-83
2020/12/11 02:53:53;;;;;;;37.27;25.83;;;;;;;;;;4593847;28;20467;-82
2020/12/11 02:56:10;;;;;;;34.30;25.83;;;;;;;;;;4593024;28;20451;-82
2020/12/11 02:58:26;;;;;;;32.57;24.73;;;;;;;;;;4592960;28;20444;-82
2020/12/11 03:00:43;;;;;;;31.87;24.90;;;;;;;;;;4591959;28;20448;-82
2020/12/11 03:02:59;;;;;;;28.30;23.17;;;;;;;;;;4592629;28;20448;-83
2020/12/11 03:05:16;;;;;;;27.57;22.43;;;;;;;;;;4593660;28;20440;-82
2020/12/11 03:07:31;;;;;;;28.47;23.30;;;;;;;;;;4592841;28;21115;-81
2020/12/11 03:09:49;;;;;;;31.30;24.07;;;;;;;;;;4592592;28;20885;-83
2020/12/11 03:12:06;;;;;;;29.13;23.13;;;;;;;;;;4591863;28;20432;-81
2020/12/11 03:14:22;;;;;;;25.97;21.93;;;;;;;;;;4594015;28;20458;-82
2020/12/11 03:16:39;;;;;;;30.07;21.67;;;;;;;;;;4591024;28;20483;-83
2020/12/11 03:18:55;;;;;;;28.73;22.00;;;;;;;;;;4594003;28;20907;-81
2020/12/11 03:21:11;;;;;;;29.73;22.90;;;;;;;;;;4591010;28;20486;-82
2020/12/11 03:23:28;;;;;;;28.23;22.70;;;;;;;;;;4593861;28;20463;-83
2020/12/11 03:25:45;;;;;;;28.30;21.90;;;;;;;;;;4592451;28;20911;-82
2020/12/11 03:28:01;;;;;;;28.07;22.17;;;;;;;;;;4597205;28;20502;-83
2020/12/11 03:30:17;;;;;;;29.43;22.63;;;6.40;83.60;;;;;;4594288;28;20432;-82
2020/12/11 03:32:34;;;;;;;29.03;22.23;;;;;;;;;;4596928;28;20443;-83
2020/12/11 03:34:50;;;;;;;31.80;24.47;;;;;;;;;;4595904;28;20439;-81
2020/12/11 03:37:07;;;;;;;33.73;25.77;;;;;;;;;;4595217;28;20447;-83
2020/12/11 03:39:22;;;;;;;31.87;25.07;;;5.60;82.60;;;;;;4595342;28;20455;-82
2020/12/11 03:41:39;;;;;;;31.57;24.00;;;;;;;;;;4579121;28;20445;-83
2020/12/11 03:43:56;;;;;;;30.53;24.70;;;;;;;;;;4595828;28;20452;-83
2020/12/11 03:46:18;;;;;;;30.90;25.37;;;;;;;;;;4578694;28;20512;-81
2020/12/11 03:48:35;;;;;;;30.83;23.93;;;;;;;;;;4595185;28;20519;-82
2020/12/11 03:50:52;;;;;;;31.43;23.10;;;;;;;;;;4594342;28;20985;-83
2020/12/11 03:53:08;;;;;;;27.57;23.00;;;;;;;;;;4595304;28;20843;-82
2020/12/11 03:55:24;;;;;;;31.90;23.63;;;5.90;82.40;;;;;;4593869;28;20432;-83
2020/12/11 03:57:42;;;;;;;28.63;22.37;;;;;;;;;;4596543;28;20451;-83
2020/12/11 03:59:58;;;;;;;30.47;22.57;;;;;;;;;;4593857;28;20448;-82
2020/12/11 04:02:15;;;;;;;29.93;22.37;;;;;;;;;;4596420;28;20432;-82
2020/12/11 04:04:31;;;;;;;25.70;20.87;;;;;;;;;;4593610;28;20443;-82
2020/12/11 04:06:48;;;;;;;30.07;23.03;;;;;;;;;;4596443;28;21268;-81
2020/12/11 04:09:05;;;;;;;30.03;23.20;;;;;;;;;;4593616;28;20440;-83
2020/12/11 04:11:22;;;;;;;25.27;21.23;;;;;;;;;;4595202;28;20905;-81
2020/12/11 04:13:39;;;;;;;26.73;20.80;;;;;;;;;;4593591;28;20438;-81
2020/12/11 04:15:57;;;;;;;26.00;20.70;;;8.10;82.90;;;;;;4595977;28;20464;-81
2020/12/11 04:18:14;;;;;;;24.07;19.90;;;;;;;;;;4593754;28;20424;-82
2020/12/11 04:20:30;;;;;;;24.07;19.60;;;;;;;;;;4594725;28;21372;-83
2020/12/11 04:22:46;;;;;;;23.67;20.27;;;;;;;;;;4595086;28;20949;-82
2020/12/11 04:25:03;;;;;;;24.50;21.20;;;;;;;;;;4578445;28;20467;-82
2020/12/11 04:27:19;;;;;;;21.40;19.03;;;;;;;;;;4595073;28;20475;-81
2020/12/11 04:29:36;;;;;;;24.60;20.77;;;;;;;;;;4595103;28;20447;-82
2020/12/11 04:31:56;;;;;;;22.93;19.77;;;;;;;;;;4594228;28;20439;-82
2020/12/11 04:34:12;;;;;;;21.03;18.83;;;;;;;;;;4593432;28;20446;-80
2020/12/11 04:36:28;;;;;;;20.83;18.63;;;;;;;;;;4594381;28;20462;-83
2020/12/11 04:38:46;;;;;;;22.90;18.60;;;;;;;;;;4593267;28;20452;-83
2020/12/11 04:41:04;;;;;;;23.70;19.07;;;;;;;;;;4595718;28;20439;-83
2020/12/11 04:43:20;;;;;;;22.17;17.90;;;;;;;;;;4594445;28;20911;-83
2020/12/11 04:45:38;;;;;;;19.87;17.77;;;;;;;;;;4595869;28;20432;-83
2020/12/11 04:47:54;;;;;;;20.77;17.87;;;;;;;;;;4592968;28;20837;-83
2020/12/11 04:50:11;;;;;;;21.73;18.63;;;;;;;;;;4594314;28;20498;-83
2020/12/11 04:52:28;;;;;;;19.87;17.77;;;;;;;;;;4594068;28;20451;-83
2020/12/11 04:54:49;;;;;;;18.20;16.27;;;7.90;77.60;;;;;;4577832;28;20464;-83
2020/12/11 04:57:10;;;;;;;18.00;16.13;;;8.30;77.80;;;;;;4592899;28;20463;-82
2020/12/11 04:59:26;;;;;;;19.03;17.00;;;;;;;;;;4594143;28;20440;-83
2020/12/11 05:01:43;;;;;;;21.87;17.63;;;;;;;;;;4592880;28;20479;-83
2020/12/11 05:04:01;;;;;;;18.77;16.87;;;;;;;;;;4595307;28;20522;-83
2020/12/11 05:06:17;;;;;;;19.43;17.53;;;;;;;;;;4593337;28;20464;-82
2020/12/11 05:08:34;;;;;;;17.63;15.93;;;;;;;;;;4593705;28;20514;-82
2020/12/11 05:10:50;;;;;;;17.87;15.97;;;;;;;;;;4594956;28;20443;-82
2020/12/11 05:13:17;;;;;;;19.13;17.07;;;;;;;;;;4593389;28;20444;-82
2020/12/11 05:15:33;;;;;;;17.10;15.40;;;;;;;;;;4594968;28;20982;-82
2020/12/11 05:17:51;;;;;;;18.57;16.60;;;;;;;;;;4592762;28;21127;-83
2020/12/11 05:20:08;;;;;;;18.90;16.90;;;;;;;;;;4594093;28;20455;-84
2020/12/11 05:22:25;;;;;;;17.77;16.07;;;;;;;;;;4592652;28;20471;-85
2020/12/11 05:24:43;;;;;;;17.10;15.40;;;;;;;;;;4594131;28;20971;-82
2020/12/11 05:26:59;;;;;;;20.53;18.07;;;;;;;;;;4592380;28;20935;-81
2020/12/11 05:29:16;;;;;;;17.30;15.50;;;;;;;;;;4594038;28;20454;-84
2020/12/11 05:31:35;;;;;;;17.80;16.00;;;;;;;;;;4592485;28;20424;-83
2020/12/11 05:34:03;;;;;;;16.80;15.13;;;;;;;;;;4595101;28;20448;-82
2020/12/11 05:36:19;;;;;;;17.73;15.77;;;;;;;;;;4594721;28;20452;-82
2020/12/11 05:38:35;;;;;;;16.37;14.63;;;;;;;;;;4601282;28;20447;-82
2020/12/11 05:40:51;;;;;;;15.30;13.77;;;;;;;;;;4603658;28;20444;-83
2020/12/11 05:43:18;;;;;;;14.73;13.10;;;9.00;82.20;;;;;;4596837;28;20439;-84
2020/12/11 05:45:35;;;;;;;13.20;12.00;;;;;;;;;;4594527;28;20427;-82
2020/12/11 05:47:58;;;;;;;14.47;12.97;;;8.00;76.70;;;;;;4603880;28;20498;-83
2020/12/11 05:50:19;;;;;;;17.07;15.30;;;;;;;;;;4594179;28;20479;-82
2020/12/11 05:52:36;;;;;;;16.90;15.23;;;;;;;;;;4593193;28;21033;-83
2020/12/11 05:54:53;;;;;;;15.80;14.33;;;;;;;;;;4593643;28;20479;-83
2020/12/11 05:57:11;;;;;;;16.90;15.10;;;;;;;;;;4593512;28;20436;-84
2020/12/11 05:59:27;;;;;;;15.83;14.20;;;;;;;;;;4594561;28;20851;-84
2020/12/11 06:01:44;;;;;;;15.87;14.27;;;;;;;;;;4592767;28;20448;-83
2020/12/11 06:04:00;;;;;;;16.60;14.37;;;;;;;;;;4593033;28;20877;-82
2020/12/11 06:06:18;;;;;;;16.33;13.90;;;;;;;;;;4591265;28;20893;-83
2020/12/11 06:08:35;;;;;;;18.50;13.43;;;;;;;;;;4592777;28;20443;-83
2020/12/11 06:10:52;;;;;;;15.13;13.47;;;;;;;;;;4592614;28;20440;-84
2020/12/11 06:13:08;;;;;;;15.00;13.40;;;;;;;;;;4593896;28;20447;-83
2020/12/11 06:15:31;;;;;;;16.80;14.87;;;7.90;76.00;;;;;;4591450;28;20472;-83
2020/12/11 06:17:49;;;;;;;15.30;13.90;;;;;;;;;;4592667;28;20417;-83
2020/12/11 06:20:07;;;;;;;16.83;15.17;;;;;;;;;;4591821;28;20444;-83
2020/12/11 06:22:25;;;;;;;15.57;14.07;;;;;;;;;;4592058;28;20431;-83
2020/12/11 06:24:41;;;;;;;16.20;14.57;;;;;;;;;;4593134;28;20984;-83
2020/12/11 06:26:58;;;;;;;15.87;14.27;;;;;;;;;;4591574;28;20506;-83
2020/12/11 06:29:26;;;;;;;18.93;14.80;;;;;;;;;;4593860;28;20470;-84
2020/12/11 06:31:47;;;;;;;16.63;14.93;;;;;;;;;;4592568;28;20458;-83
2020/12/11 06:34:20;;;;;;;18.20;14.13;;;;;;;;;;4592813;28;20425;-82
2020/12/11 06:36:44;;;;;;;18.53;13.83;;;;;;;;;;4592123;28;20444;-83
2020/12/11 06:39:01;;;;;;;17.57;14.43;;;;;;;;;;4592583;28;20428;-82
2020/12/11 06:41:37;;;;;;;16.87;15.17;;;;;;;;;;4590718;28;20451;-82
2020/12/11 06:43:56;;;;;;;16.67;14.87;;;;;;;;;;4591932;28;20431;-88
2020/12/11 06:46:13;;;;;;;15.47;13.93;;;;;;;;;;4591280;28;20429;-83
2020/12/11 06:48:30;;;;;;;16.53;14.83;;;;;;;;;;4591615;28;20446;-83
2020/12/11 06:51:03;;;;;;;16.60;15.00;;;8.40;75.40;;;;;;4591697;28;20471;-83
2020/12/11 06:53:39;;;;;;;17.23;15.17;;;;;;;;;;4591357;28;20942;-84
2020/12/11 06:55:57;;;;;;;17.73;15.93;;;;;;;;;;4593594;28;20976;-83
2020/12/11 06:58:21;;;;;;;16.87;14.87;;;;;;;;;;4574543;28;20449;-84
2020/12/11 07:00:38;;;;;;;19.83;15.13;;;;;;;;;;4595933;28;20440;-83
2020/12/11 07:03:13;;;;;;;14.50;13.00;;;;;;;;;;4593989;28;20451;-82
2020/12/11 07:05:29;;;;;;;10.70;9.07;;;8.70;80.80;;;;;;4595670;28;20419;-82
2020/12/11 07:07:45;;;;;;;12.37;10.60;;;;;;;;;;4595554;28;20872;-83
2020/12/11 07:10:02;;;;;;;13.37;12.07;;;;;;;;;;4595793;28;20448;-85
2020/12/11 07:12:19;;;;;;;26.70;15.07;;;;;;;;;;4594444;28;20463;-83
2020/12/11 07:14:36;;;;;;;18.10;15.60;;;;;;;;;;4594654;28;20483;-82
2020/12/11 07:16:53;;;;;;;17.23;15.50;;;;;;;;;;4595074;28;20427;-84
2020/12/11 07:19:09;;;;;;;17.27;14.53;;;;;;;;;;4595927;28;20436;-83
2020/12/11 07:21:28;;;;;;;18.53;16.53;;;;;;;;;;4595077;28;20551;-83
2020/12/11 07:23:46;;;;;;;18.57;15.67;;;;;;;;;;4595190;28;20439;-85
2020/12/11 07:26:03;;;;;;;17.40;15.70;;;;;;;;;;4596342;28;20528;-82
2020/12/11 07:28:20;;;;;;;17.03;15.23;;;;;;;;;;4593603;28;20494;-84
2020/12/11 07:30:37;;;;;;;24.60;17.13;;;;;;;;;;4595589;28;20907;-81
2020/12/11 07:32:54;;;;;;;16.90;15.30;;;;;;;;;;4594914;28;20446;-83
2020/12/11 07:35:10;;;;;;;16.63;14.90;;;;;;;;;;4595901;28;20811;-83
2020/12/11 07:37:27;;;;;;;16.67;14.97;;;;;;;;;;4593152;28;20907;-83
2020/12/11 07:39:44;;;;;;;17.17;15.37;;;;;;;;;;4596940;28;20444;-83
2020/12/11 07:42:01;;;;;;;17.03;15.33;;;;;;;;;;4593425;28;20480;-84
2020/12/11 07:44:24;;;;;;;16.67;15.03;;;;;;;;;;4564836;28;20454;-84
2020/12/11 07:46:42;;;;;;;17.40;15.80;;;;;;;;;;4594480;28;20736;-84
2020/12/11 07:48:58;;;;;;;17.80;15.80;;;;;;;;;;4597186;28;20440;-84
2020/12/11 07:51:15;;;;;;;16.73;15.07;;;;;;;;;;4608315;28;20939;-84
2020/12/11 07:53:31;;;;;;;18.03;15.40;;;;;;;;;;4585696;28;20445;-83
2020/12/11 07:55:47;;;;;;;17.63;15.80;;;;;;;;;;4599040;28;20524;-83
2020/12/11 07:58:04;;;;;;;17.97;16.27;;;;;;;;;;4595873;28;20448;-85
2020/12/11 08:00:23;;;;;;;17.30;15.60;;;8.00;73.50;;;;;;4595610;28;20432;-84
2020/12/11 08:02:39;;;;;;;14.67;13.17;;;;;;;;;;4594445;28;20432;-86
2020/12/11 08:04:56;;;;;;;15.80;14.20;;;;;;;;;;4594881;28;20447;-84
2020/12/11 08:07:22;;;;;;;15.27;13.47;;;;;;;;;;4594317;28;20849;-85
2020/12/11 08:09:38;;;;;;;15.53;13.93;;;;;;;;;;4595376;28;20458;-84
2020/12/11 08:11:55;;;;;;;17.70;15.80;;;;;;;;;;4592140;28;20447;-85
2020/12/11 08:14:12;;;;;;;17.53;15.10;;;;;;;;;;4596928;28;20841;-84
2020/12/11 08:16:29;;;;;;;17.73;15.80;;;;;;;;;;4595170;28;20539;-82
2020/12/11 08:18:46;;;;;;;15.97;14.37;;;;;;;;;;4595177;28;20467;-80
2020/12/11 08:21:03;;;;;;;16.90;15.20;;;;;;;;;;4593623;28;20806;-80
2020/12/11 08:23:37;;;;;;;16.07;14.47;;;;;;;;;;4595582;28;20444;-80
2020/12/11 08:26:07;;;;;;;15.90;14.40;;;;;;;;;;4592102;28;20951;-79
2020/12/11 08:28:23;;;;;;;18.83;15.10;;;;;;;;;;4593523;28;20474;-80
2020/12/11 08:30:39;;;;;;;16.30;14.57;;;;;;;;;;4593969;28;20813;-78
2020/12/11 08:32:56;;;;;;;18.40;16.00;;;;;;;;;;4594339;28;20454;-79
2020/12/11 08:35:16;;;;;;;17.60;15.73;;;;;;;;;;4593793;28;20470;-79
2020/12/11 08:37:52;;;;;;;16.93;15.13;;;7.80;72.20;;;;;;4591547;28;20425;-78
2020/12/11 08:40:09;;;;;;;20.57;16.30;;;;;;;;;;4595700;28;20425;-80
2020/12/11 08:42:28;;;;;;;17.60;15.70;;;;;;;;;;4592597;28;20439;-81
2020/12/11 08:45:10;;;;;;;16.63;15.03;;;7.70;72.20;;;;;;4595601;28;20440;-81
2020/12/11 08:50:07;;;;;;;17.33;15.53;;;;;;;;;;4587997;28;20459;-80
2020/12/11 08:52:25;;;;;;;16.43;14.90;;;;;;;;;;4593790;28;20539;-78
2020/12/11 08:54:42;;;;;;;18.57;16.30;;;;;;;;;;4594023;28;20440;-80
2020/12/11 08:56:57;;;;;;;17.20;15.57;;;;;;;;;;4593044;28;20450;-76
2020/12/11 08:59:13;;;;;;;16.80;15.20;;;;;;;;;;4593205;28;20803;-80
2020/12/11 09:01:30;;;;;;;14.50;13.10;;;;;;;;;;4593133;28;20452;-80
2020/12/11 09:03:46;;;;;;;14.17;12.87;;;;;;;;;;4592753;28;20524;-78
2020/12/11 09:06:03;;;;;;;21.17;18.97;;;;;;;;;;4593118;28;20467;-76
2020/12/11 09:08:19;;;;;;;17.37;14.90;;;;;;;;;;4592020;28;20459;-77
2020/12/11 09:10:35;;;;;;;15.70;14.10;;;;;;;;;;4593220;28;20451;-77
2020/12/11 09:12:54;;;;;;;14.20;12.90;;;;;;;;;;4592112;28;20436;-77
2020/12/11 09:15:11;;;;;;;14.13;12.80;;;;;;;;;;4594120;28;20830;-77
2020/12/11 09:17:28;;;;;;;13.87;12.57;;;;;;;;;;4592162;28;20444;-77
2020/12/11 09:19:44;;;;;;;13.00;11.80;;;;;;;;;;4594320;28;20440;-76
2020/12/11 09:22:01;;;;;;;14.10;12.70;;;;;;;;;;4590293;28;20433;-79
2020/12/11 09:24:17;;;;;;;19.70;17.63;;;;;;;;;;4591913;28;20439;-77
2020/12/11 09:26:33;;;;;;;13.10;11.77;;;;;;;;;;4590637;28;20563;-79
2020/12/11 09:28:55;;;;;;;13.70;12.40;;;;;;;;;;4593976;28;20479;-78
2020/12/11 09:31:15;;;;;;;12.97;11.67;;;;;;;;;;4590717;28;20440;-78
2020/12/11 09:33:36;;;;;;;13.33;11.50;;;;;;;;;;4593607;28;20440;-79
2020/12/11 09:35:54;;;;;;;15.47;13.27;;;;;;;;;;4592821;28;20436;-80
2020/12/11 09:38:13;;;;;;;15.37;13.77;;;;;;;;;;4591431;28;20929;-77
2020/12/11 09:40:36;;;;;;;14.93;13.43;;;;;;;;;;4593489;28;20452;-78
2020/12/11 09:43:22;;;;;;;16.73;13.27;;;;;;;;;;4590608;28;20937;-79
2020/12/11 09:45:40;;;;;;;17.70;14.00;;;;;;;;;;4594237;28;20436;-79
2020/12/11 09:48:08;;;;;;;17.90;14.60;;;;;;;;;;4591296;28;20464;-78
2020/12/11 09:50:45;;;;;;;15.50;13.90;;;;;;;;;;4592600;28;20460;-78
2020/12/11 09:53:08;;;;;;;18.63;15.87;;;;;;;;;;4591571;28;20502;-81
2020/12/11 09:55:31;;;;;;;18.63;13.87;;;;;;;;;;4592866;28;20460;-78
2020/12/11 09:57:47;;;;;;;16.80;15.03;;;;;;;;;;4593002;28;20432;-78
2020/12/11 10:00:05;;;;;;;14.20;12.63;;;;;;;;;;4590535;28;20817;-80
2020/12/11 10:02:36;;;;;;;16.27;13.80;;;;;;;;;;4593800;28;20436;-79
2020/12/11 10:04:52;;;;;;;15.57;14.17;;;;;;;;;;4591465;28;20432;-77
2020/12/11 10:07:10;;;;;;;14.77;13.10;;;;;;;;;;4593754;28;20432;-80
2020/12/11 10:09:26;;;;;;;16.40;14.80;;;;;;;;;;4590860;28;20463;-75
2020/12/11 10:11:43;;;;;;;14.57;13.07;;;9.20;71.20;;;;;;4593629;28;20440;-78
2020/12/11 10:14:13;;;;;;;15.03;13.53;;;7.40;72.00;;;;;;4590638;28;20456;-77
2020/12/11 10:16:29;;;;;;;14.63;13.27;;;;;;;;;;4592914;28;20606;-76
2020/12/11 10:18:45;;;;;;;17.20;13.67;;;;;;;;;;4590617;28;20443;-77
2020/12/11 10:21:01;;;;;;;16.17;14.60;;;;;;;;;;4592906;28;20447;-75
2020/12/11 10:23:17;;;;;;;15.83;14.17;;;8.00;71.70;;;;;;4591139;28;20452;-77
2020/12/11 10:25:32;;;;;;;14.70;13.27;;;;;;;;;;4592298;28;20814;-77
2020/12/11 10:27:49;;;;;;;15.30;13.60;;;;;;;;;;4591113;28;20483;-75
2020/12/11 10:30:05;;;;;;;15.00;13.50;;;;;;;;;;4592447;28;20506;-77
2020/12/11 10:32:21;;;;;;;15.57;13.33;;;8.60;71.70;;;;;;4591963;28;20902;-77
2020/12/11 10:34:37;;;;;;;15.47;13.97;;;;;;;;;;4591655;28;20476;-77
2020/12/11 10:36:52;;;;;;;19.43;13.90;;;8.00;71.70;;;;;;4595829;28;20436;-76
2020/12/11 10:39:08;;;;;;;15.97;14.40;;;;;;;;;;4594781;28;20451;-77
2020/12/11 10:41:28;;;;;;;16.20;14.60;;;;;;;;;;4596756;28;20440;-76
2020/12/11 10:43:45;;;;;;;17.07;15.47;;;8.30;68.80;;;;;;4594487;28;20494;-75
2020/12/11 10:46:01;;;;;;;18.57;15.10;;;;;;;;;;4595314;28;20531;-77
2020/12/11 10:48:17;;;;;;;17.30;15.70;;;;;;;;;;4594070;28;20514;-80
2020/12/11 10:50:35;;;;;;;50.37;40.67;;;;;;;;;;4597148;28;20454;-79
2020/12/11 10:52:51;;;;;;;19.00;16.77;;;;;;;;;;4594421;28;20514;-79
2020/12/11 10:55:08;;;;;;;18.27;16.43;;;;;;;;;;4597837;28;20885;-83
2020/12/11 10:57:27;;;;;;;20.27;17.00;;;;;;;;;;4593944;28;20416;-85
2020/12/11 10:59:44;;;;;;;19.50;17.50;;;;;;;;;;4596614;28;20478;-82
2020/12/11 11:02:01;;;;;;;19.57;17.50;;;;;;;;;;4577823;28;20433;-85
2020/12/11 11:04:18;;;;;;;20.47;18.47;;;;;;;;;;4597121;28;20439;-85
2020/12/11 11:06:37;;;;;;;20.73;18.60;;;;;;;;;;4577554;28;20448;-84
2020/12/11 11:09:06;;;;;;;21.10;18.00;;;;;;;;;;4597415;28;20517;-85
2020/12/11 11:11:23;;;;;;;21.30;17.33;;;;;;;;;;4595792;28;20474;-80
2020/12/11 11:13:52;;;;;;;17.97;16.17;;;;;;;;;;4595214;28;20443;-86
2020/12/11 11:16:09;;;;;;;19.23;17.33;;;;;;;;;;4596245;28;20464;-82
2020/12/11 11:18:34;;;;;;;20.67;18.50;;;;;;;;;;4594994;28;20447;-83
2020/12/11 11:21:06;;;;;;;20.00;17.60;;;;;;;;;;4596985;28;20428;-82
2020/12/11 11:23:36;;;;;;;19.53;17.67;;;;;;;;;;4593045;28;20455;-82
2020/12/11 11:28:32;;;;;;;19.83;17.83;;;;;;;;;;4594584;28;20471;-83
2020/12/11 11:30:48;;;;;;;20.27;18.17;;;;;;;;;;4596299;28;20432;-82
2020/12/11 11:33:06;;;;;;;20.37;18.27;;;;;;;;;;4594722;28;20872;-84
2020/12/11 11:35:23;;;;;;;20.97;18.77;;;;;;;;;;4596838;28;20998;-81
2020/12/11 11:37:39;;;;;;;20.47;18.57;;;;;;;;;;4594944;28;20436;-74
2020/12/11 11:39:57;;;;;;;23.87;20.70;;;;;;;;;;4594228;28;20531;-85
2020/12/11 11:42:13;;;;;;;21.57;19.30;;;9.10;74.70;;;;;;4578642;28;20479;-84
2020/12/11 11:44:44;;;;;;;23.33;19.67;;;;;;;;;;4593180;28;20583;-84
2020/12/11 11:47:00;;;;;;;21.27;19.07;;;9.00;75.50;;;;;;4595973;28;20433;-86
2020/12/11 11:49:22;;;;;;;21.90;19.70;;;;;;;;;;4593848;28;20595;-85
2020/12/11 11:51:44;;;;;;;22.13;19.83;;;;;;;;;;4597839;28;20439;-84
2020/12/11 11:54:00;;;;;;;22.63;20.23;;;;;;;;;;4594742;28;20494;-83
2020/12/11 11:56:20;;;;;;;23.53;21.20;;;;;;;;;;4597600;28;20468;-82
2020/12/11 11:58:37;;;;;;;25.27;20.23;;;;;;;;;;4600362;28;20492;-82
2020/12/11 12:00:53;;;;;;;24.53;19.93;;;;;;;;;;4602326;28;20692;-86
2020/12/11 12:03:18;;;;;;;24.53;20.20;;;;;;;;;;4598360;28;20451;-83
2020/12/11 12:05:36;;;;;;;22.00;19.73;;;;;;;;;;4602014;28;20899;-82
2020/12/11 12:07:52;;;;;;;20.53;18.60;;;;;;;;;;4594420;28;20988;-82
2020/12/11 12:10:09;;;;;;;21.17;18.97;;;;;;;;;;4579054;28;20444;-84
2020/12/11 12:12:25;;;;;;;21.00;18.63;;;;;;;;;;4595976;28;20537;-84
2020/12/11 12:14:42;;;;;;;19.27;17.30;;;;;;;;;;4594742;28;20440;-83
2020/12/11 12:17:03;;;;;;;22.37;19.87;;;;;;;;;;4594179;28;20439;-82
2020/12/11 12:19:26;;;;;;;20.87;18.77;;;;;;;;;;4592107;28;20539;-83
2020/12/11 12:22:16;;;;;;;21.63;17.87;;;;;;;;;;4595139;28;21074;-83
2020/12/11 12:27:34;;;;;;;22.57;20.23;;;;;;;;;;4595440;28;20438;-79
2020/12/11 12:29:50;;;;;;;23.10;20.80;;;;;;;;;;4592588;28;20818;-81
2020/12/11 12:32:09;;;;;;;21.13;19.03;;;;;;;;;;4594031;28;20444;-80
2020/12/11 12:34:43;;;;;;;23.93;18.63;;;;;;;;;;4595150;28;20424;-80
2020/12/11 12:37:16;;;;;;;20.43;18.53;;;;;;;;;;4592946;28;20437;-79
2020/12/11 12:44:43;;;;;;;21.50;19.17;;;;;;;;;;4594477;28;20484;-82
2020/12/11 12:47:00;;;;;;;20.37;18.27;;;;;;;;;;4593236;28;20782;-82
2020/12/11 12:49:17;;;;;;;19.90;18.00;;;;;;;;;;4593638;28;20475;-82
2020/12/11 12:51:33;;;;;;;20.37;18.37;;;;;;;;;;4593572;28;20974;-83
2020/12/11 12:53:50;;;;;;;20.80;18.70;;;;;;;;;;4593011;28;20506;-81
2020/12/11 12:58:43;;;;;;;21.07;18.97;;;;;;;;;;4591879;28;20440;-84
2020/12/11 13:01:06;;;;;;;21.93;19.73;;;;;;;;;;4596135;28;20439;-84
2020/12/11 13:05:57;;;;;;;21.63;19.43;;;;;;;;;;4596054;28;20456;-83
2020/12/11 13:08:13;;;;;;;22.60;20.23;;;;;;;;;;4592833;28;20515;-83
2020/12/11 13:10:30;;;;;;;22.30;20.20;;;;;;;;;;4594660;28;20506;-84
2020/12/11 13:12:47;;;;;;;23.50;20.20;;;;;;;;;;4591233;28;20428;-83
2020/12/11 13:15:03;;;;;;;21.73;19.57;;;;;;;;;;4594303;28;20463;-85
2020/12/11 13:17:20;;;;;;;23.80;20.23;;;;;;;;;;4592537;28;20451;-83
2020/12/11 13:19:39;;;;;;;21.07;18.93;;;;;;;;;;4594035;28;20938;-84
2020/12/11 13:22:10;;;;;;;22.00;19.80;;;;;;;;;;4594151;28;20432;-84
2020/12/11 13:27:07;;;;;;;20.53;18.57;;;;;;;;;;4594557;28;20451;-84
2020/12/11 13:29:22;;;;;;;20.57;18.37;;;;;;;;;;4593362;28;20484;-83
2020/12/11 13:31:43;;;;;;;20.50;18.40;;;;;;;;;;4569773;28;20450;-87
2020/12/11 13:33:59;;;;;;;19.73;17.93;;;;;;;;;;4601631;28;20926;-83
2020/12/11 13:36:15;;;;;;;19.37;17.43;;;;;;;;;;4604823;28;20455;-83
2020/12/11 13:38:32;;;;;;;21.20;19.30;;;;;;;;;;4598164;28;20899;-83